createdAt,value
2017-11-13T00:02:03.290Z,93.0
2017-11-13T00:07:03.817Z,93.3
2017-11-13T00:12:03.370Z,93.1
2017-11-13T00:17:03.704Z,93.2
2017-11-13T00:22:03.712Z,93.1
2017-11-13T00:27:03.976Z,93.0
2017-11-13T00:32:03.122Z,92.9
2017-11-13T00:37:03.766Z,93.2
2017-11-13T00:42:03.067Z,94.2
2017-11-13T00:47:03.258Z,94.4
2017-11-13T00:52:03.316Z,93.0
2017-11-13T00:57:03.424Z,93.0
2017-11-13T01:02:03.685Z,93.1
2017-11-13T01:07:03.347Z,93.0
2017-11-13T01:12:03.724Z,92.9
2017-11-13T01:17:03.950Z,92.8
2017-11-13T01:22:03.380Z,93.0
2017-11-13T01:27:03.662Z,93.2
2017-11-13T01:32:04.005Z,94.1
2017-11-13T01:37:03.440Z,94.5
2017-11-13T01:42:03.703Z,94.4
2017-11-13T01:47:03.560Z,94.4
2017-11-13T01:52:03.480Z,94.2
2017-11-13T01:57:03.733Z,94.0
2017-11-13T02:02:03.041Z,93.8
2017-11-13T02:07:03.833Z,94.0
2017-11-13T02:12:03.156Z,93.8
2017-11-13T02:17:03.435Z,93.2
2017-11-13T02:22:03.856Z,93.2
2017-11-13T02:27:03.937Z,93.0
2017-11-13T02:32:03.148Z,92.7
2017-11-13T02:37:03.433Z,91.3
2017-11-13T02:42:03.562Z,91.3
2017-11-13T02:47:03.893Z,90.7
2017-11-13T02:52:02.982Z,90.2
2017-11-13T02:57:03.237Z,90.0
2017-11-13T03:02:03.565Z,89.7
2017-11-13T03:07:03.662Z,89.2
2017-11-13T03:12:03.231Z,89.1
2017-11-13T03:17:03.490Z,89.1
2017-11-13T03:22:03.702Z,89.1
2017-11-13T03:27:03.932Z,88.7
2017-11-13T03:32:03.184Z,88.5
2017-11-13T03:37:03.958Z,88.0
2017-11-13T03:42:03.369Z,88.0
2017-11-13T03:47:03.581Z,88.1
2017-11-13T03:52:03.877Z,88.1
2017-11-13T03:57:03.308Z,88.0
2017-11-13T04:02:03.533Z,88.2
2017-11-13T04:07:03.160Z,87.6
2017-11-13T04:12:03.666Z,88.0
2017-11-13T04:17:04.200Z,88.2
2017-11-13T04:22:03.394Z,88.0
2017-11-13T04:27:03.644Z,87.7
2017-11-13T04:32:03.968Z,87.6
2017-11-13T04:37:03.256Z,87.7
2017-11-13T04:42:03.429Z,87.1
2017-11-13T04:47:03.812Z,87.5
2017-11-13T04:52:03.122Z,88.2
2017-11-13T04:57:03.404Z,88.2
2017-11-13T05:02:03.607Z,87.2
2017-11-13T05:07:03.181Z,87.0
2017-11-13T05:12:03.553Z,86.9
2017-11-13T05:17:03.920Z,86.5
2017-11-13T05:22:03.296Z,86.7
2017-11-13T05:27:03.605Z,86.8
2017-11-13T05:32:03.813Z,87.0
2017-11-13T05:37:03.107Z,86.9
2017-11-13T05:42:03.385Z,87.0
2017-11-13T05:47:03.650Z,87.4
2017-11-13T05:52:03.031Z,87.4
2017-11-13T05:57:03.292Z,87.1
2017-11-13T06:02:05.181Z,87.0
2017-11-13T06:07:03.212Z,87.0
2017-11-13T06:12:03.697Z,87.0
2017-11-13T06:17:26.438Z,87.5
2017-11-13T06:22:03.272Z,88.0
2017-11-13T06:27:03.606Z,86.9
2017-11-13T06:32:28.405Z,86.9
2017-11-13T06:37:03.857Z,86.5
2017-11-13T06:42:03.889Z,86.8
2017-11-13T06:47:28.549Z,87.0
2017-11-13T06:52:03.077Z,87.0
2017-11-13T06:57:03.556Z,87.1
2017-11-13T07:02:24.991Z,86.4
2017-11-13T07:07:03.607Z,86.8
2017-11-13T07:12:03.129Z,86.8
2017-11-13T07:17:23.992Z,86.7
2017-11-13T07:22:03.033Z,86.7
2017-11-13T07:27:03.479Z,86.7
2017-11-13T07:32:24.463Z,86.8
2017-11-13T07:37:03.253Z,86.2
2017-11-13T07:42:03.660Z,86.7
2017-11-13T07:47:24.491Z,85.9
2017-11-13T07:52:03.503Z,85.9
2017-11-13T07:57:03.859Z,85.4
2017-11-13T08:02:21.787Z,84.2
2017-11-13T08:07:03.703Z,84.9
2017-11-13T08:12:03.370Z,84.7
2017-11-13T08:17:21.385Z,85.3
2017-11-13T08:22:03.751Z,85.5
2017-11-13T08:27:03.204Z,85.2
2017-11-13T08:32:22.207Z,85.2
2017-11-13T08:37:03.081Z,85.1
2017-11-13T08:42:03.426Z,85.1
2017-11-13T08:47:24.297Z,84.9
2017-11-13T08:52:03.265Z,84.7
2017-11-13T08:57:03.653Z,84.8
2017-11-13T09:02:24.125Z,84.7
2017-11-13T09:07:03.572Z,84.3
2017-11-13T09:12:03.230Z,84.2
2017-11-13T09:17:22.358Z,83.5
2017-11-13T09:22:03.292Z,83.5
2017-11-13T09:27:03.743Z,83.9
2017-11-13T09:32:23.588Z,84.6
2017-11-13T09:37:03.601Z,84.5
2017-11-13T09:42:03.979Z,84.0
2017-11-13T09:47:22.107Z,84.2
2017-11-13T09:52:03.712Z,83.4
2017-11-13T09:57:03.199Z,83.3
2017-11-13T10:02:23.716Z,82.6
2017-11-13T10:07:03.197Z,83.2
2017-11-13T10:12:03.756Z,83.2
2017-11-13T10:17:21.873Z,83.4
2017-11-13T10:22:03.636Z,83.4
2017-11-13T10:27:03.092Z,83.0
2017-11-13T10:32:23.842Z,83.0
2017-11-13T10:37:03.904Z,83.2
2017-11-13T10:42:03.228Z,83.2
2017-11-13T10:47:24.253Z,82.7
2017-11-13T10:52:03.130Z,82.3
2017-11-13T10:57:03.535Z,83.2
2017-11-13T11:02:22.230Z,83.6
2017-11-13T11:07:03.483Z,83.7
2017-11-13T11:12:03.946Z,83.6
2017-11-13T11:17:26.816Z,83.8
2017-11-13T11:22:03.846Z,84.2
2017-11-13T11:27:03.228Z,84.2
2017-11-13T11:32:22.090Z,83.1
2017-11-13T11:37:03.110Z,83.0
2017-11-13T11:42:03.579Z,82.9
2017-11-13T11:47:27.525Z,83.3
2017-11-13T11:52:03.693Z,83.3
2017-11-13T11:57:03.163Z,83.4
2017-11-13T12:02:30.889Z,83.5
2017-11-13T12:07:03.863Z,83.3
2017-11-13T12:12:03.551Z,83.2
2017-11-13T12:17:24.514Z,83.3
2017-11-13T12:22:03.384Z,83.6
2017-11-13T12:27:03.799Z,83.5
2017-11-13T12:32:24.563Z,83.4
2017-11-13T12:37:03.669Z,82.8
2017-11-13T12:42:03.004Z,82.5
2017-11-13T12:47:24.486Z,83.1
2017-11-13T12:52:03.796Z,82.7
2017-11-13T12:57:03.241Z,83.0
2017-11-13T13:02:27.624Z,83.3
2017-11-13T13:07:03.767Z,83.3
2017-11-13T13:12:03.263Z,84.2
2017-11-13T13:17:29.637Z,82.6
2017-11-13T13:22:03.823Z,82.5
2017-11-13T13:27:03.333Z,82.4
2017-11-13T13:32:22.087Z,81.8
2017-11-13T13:37:03.904Z,83.1
2017-11-13T13:42:03.208Z,81.9
2017-11-13T13:47:30.125Z,81.5
2017-11-13T13:52:03.328Z,80.1
2017-11-13T13:57:03.750Z,80.0
2017-11-13T14:02:23.905Z,78.2
2017-11-13T14:07:03.732Z,78.1
2017-11-13T14:12:03.227Z,80.4
2017-11-13T14:17:25.309Z,80.6
2017-11-13T14:22:03.303Z,80.6
2017-11-13T14:27:03.773Z,79.1
2017-11-13T14:32:21.265Z,78.3
2017-11-13T14:37:03.482Z,76.3
2017-11-13T14:42:03.754Z,75.1
2017-11-13T14:47:24.612Z,77.1
2017-11-13T14:52:03.635Z,77.1
2017-11-13T14:57:03.062Z,79.3
2017-11-13T15:02:23.923Z,81.3
2017-11-13T15:07:03.204Z,83.8
2017-11-13T15:12:03.719Z,83.8
2017-11-13T15:17:28.857Z,78.7
2017-11-13T15:22:03.875Z,78.7
2017-11-13T15:27:03.453Z,80.3
2017-11-13T15:32:23.962Z,81.8
2017-11-13T15:37:03.555Z,82.7
2017-11-13T15:42:03.763Z,83.3
2017-11-13T15:47:26.661Z,83.6
2017-11-13T15:52:03.360Z,83.6
2017-11-13T15:57:03.912Z,83.6
2017-11-13T16:02:22.129Z,83.5
2017-11-13T16:07:03.298Z,83.4
2017-11-13T16:12:03.907Z,83.5
2017-11-13T16:17:26.633Z,83.6
2017-11-13T16:22:03.715Z,83.9
2017-11-13T16:27:04.024Z,50.0
2017-11-13T16:32:07.271Z,83.7
2017-11-13T16:37:03.808Z,83.8
2017-11-13T16:42:03.142Z,84.2
2017-11-13T16:47:03.491Z,84.8
2017-11-13T16:52:03.753Z,84.4
2017-11-13T16:57:03.133Z,83.6
2017-11-13T17:02:03.735Z,83.6
2017-11-13T17:07:03.882Z,83.8
2017-11-13T17:12:03.430Z,83.9
2017-11-13T17:17:03.668Z,83.9
2017-11-13T17:22:03.075Z,83.7
2017-11-13T17:27:03.403Z,83.6
2017-11-13T17:32:03.668Z,83.6
2017-11-13T17:37:03.951Z,83.7
2017-11-13T17:42:03.284Z,84.0
2017-11-13T17:47:03.518Z,83.2
2017-11-13T17:52:03.900Z,83.5
2017-11-13T17:57:03.274Z,83.4
2017-11-13T18:02:03.501Z,82.3
2017-11-13T18:07:03.842Z,82.6
2017-11-13T18:12:03.384Z,82.5
2017-11-13T18:17:03.739Z,82.7
2017-11-13T18:22:03.122Z,82.7
2017-11-13T18:27:03.433Z,82.8
2017-11-13T18:32:03.688Z,83.0
2017-11-13T18:37:04.005Z,82.7
2017-11-13T18:42:03.327Z,83.0
2017-11-13T18:47:03.585Z,83.1
2017-11-13T18:52:03.867Z,83.0
2017-11-13T18:57:03.148Z,82.8
2017-11-13T19:02:03.473Z,82.5
2017-11-13T19:07:03.818Z,82.4
2017-11-13T19:12:03.300Z,82.4
2017-11-13T19:17:03.629Z,82.7
2017-11-13T19:22:03.958Z,82.4
2017-11-13T19:27:03.378Z,82.4
2017-11-13T19:32:03.659Z,82.8
2017-11-13T19:37:03.931Z,82.8
2017-11-13T19:42:03.234Z,82.5
2017-11-13T19:47:03.554Z,83.1
2017-11-13T19:52:03.762Z,83.0
2017-11-13T19:57:03.157Z,82.9
2017-11-13T20:02:03.416Z,83.3
2017-11-13T20:07:03.945Z,82.8
2017-11-13T20:12:03.382Z,82.8
2017-11-13T20:17:03.647Z,83.1
2017-11-13T20:22:03.982Z,83.4
2017-11-13T20:27:03.373Z,83.3
2017-11-13T20:32:03.638Z,83.4
2017-11-13T20:37:03.894Z,83.4
2017-11-13T20:42:03.244Z,83.3
2017-11-13T20:47:03.547Z,83.4
2017-11-13T20:52:03.748Z,83.4
2017-11-13T20:57:03.011Z,83.4
2017-11-13T21:02:03.391Z,83.2
2017-11-13T21:07:03.753Z,82.8
2017-11-13T21:12:03.189Z,83.1
2017-11-13T21:17:03.568Z,83.2
2017-11-13T21:22:03.948Z,83.3
2017-11-13T21:27:03.308Z,83.1
2017-11-13T21:32:03.688Z,83.9
2017-11-13T21:37:03.910Z,84.0
2017-11-13T21:42:03.257Z,84.1
2017-11-13T21:47:03.529Z,83.7
2017-11-13T21:52:03.815Z,83.7
2017-11-13T21:57:03.147Z,83.4
2017-11-13T22:02:03.438Z,83.2
2017-11-13T22:07:03.805Z,83.2
2017-11-13T22:12:03.345Z,83.5
2017-11-13T22:17:03.865Z,83.3
2017-11-13T22:22:03.033Z,83.4
2017-11-13T22:27:03.440Z,83.2
2017-11-13T22:32:03.660Z,83.4
2017-11-13T22:37:03.049Z,83.6
2017-11-13T22:42:03.382Z,83.1
2017-11-13T22:47:03.726Z,82.9
2017-11-13T22:52:02.926Z,83.1
2017-11-13T22:57:03.329Z,82.9
2017-11-13T23:02:03.691Z,82.8
2017-11-13T23:07:03.434Z,82.8
2017-11-13T23:12:03.705Z,82.9
2017-11-13T23:22:04.201Z,83.1
2017-11-13T23:27:03.880Z,82.7
2017-11-13T23:32:03.962Z,83.0
2017-11-13T23:37:03.406Z,83.3
2017-11-13T23:42:03.417Z,83.0
2017-11-13T23:47:03.530Z,83.0
2017-11-13T23:52:02.974Z,82.6
2017-11-13T23:57:03.159Z,82.5
